createdAt,value
2017-01-15T00:00:23.594Z,-93
2017-01-15T00:01:23.513Z,-93
2017-01-15T00:02:23.619Z,-93
2017-01-15T00:03:23.566Z,-93
2017-01-15T00:04:23.567Z,-93
2017-01-15T00:05:23.514Z,-94
2017-01-15T00:06:23.556Z,-93
2017-01-15T00:07:23.565Z,-93
2017-01-15T00:08:23.537Z,-93
2017-01-15T00:09:23.815Z,-93
2017-01-15T00:10:23.696Z,-93
2017-01-15T00:11:23.600Z,-94
2017-01-15T00:12:23.646Z,-93
2017-01-15T00:13:23.664Z,-93
2017-01-15T00:14:23.746Z,-93
2017-01-15T00:15:23.539Z,-93
2017-01-15T00:16:23.665Z,-93
2017-01-15T00:17:23.674Z,-93
2017-01-15T00:18:23.665Z,-93
2017-01-15T00:19:23.612Z,-93
2017-01-15T00:20:23.623Z,-93
2017-01-15T00:21:23.556Z,-93
2017-01-15T00:22:23.723Z,-94
2017-01-15T00:23:23.618Z,-93
2017-01-15T00:24:23.649Z,-93
2017-01-15T00:25:23.690Z,-93
2017-01-15T00:26:23.748Z,-93
2017-01-15T00:27:23.608Z,-93
2017-01-15T00:28:23.627Z,-93
2017-01-15T00:29:23.657Z,-93
2017-01-15T00:30:23.659Z,-93
2017-01-15T00:31:23.710Z,-93
2017-01-15T00:32:23.577Z,-93
2017-01-15T00:33:23.672Z,-93
2017-01-15T00:34:23.659Z,-93
2017-01-15T00:35:23.661Z,-93
2017-01-15T00:36:23.658Z,-93
2017-01-15T00:37:23.658Z,-92
2017-01-15T00:38:23.733Z,-93
2017-01-15T00:39:23.649Z,-94
2017-01-15T00:40:23.734Z,-93
2017-01-15T00:41:23.810Z,-93
2017-01-15T00:42:23.593Z,-93
2017-01-15T00:43:23.701Z,-93
2017-01-15T00:44:23.671Z,-93
2017-01-15T00:45:23.647Z,-93
2017-01-15T00:46:23.723Z,-93
2017-01-15T00:47:23.726Z,-93
2017-01-15T00:48:23.804Z,-93
2017-01-15T00:49:23.743Z,-93
2017-01-15T00:50:23.707Z,-94
2017-01-15T00:51:23.738Z,-93
2017-01-15T00:52:23.695Z,-93
2017-01-15T00:53:23.667Z,-93
2017-01-15T00:54:23.778Z,-93
2017-01-15T00:55:23.677Z,-94
2017-01-15T00:56:23.736Z,-93
2017-01-15T00:57:23.688Z,-93
2017-01-15T00:58:23.606Z,-93
2017-01-15T00:59:23.818Z,-93
2017-01-15T01:00:23.690Z,-94
2017-01-15T01:01:23.748Z,-93
2017-01-15T01:02:23.825Z,-94
2017-01-15T01:03:23.631Z,-94
2017-01-15T01:04:23.701Z,-93
2017-01-15T01:05:23.738Z,-93
2017-01-15T01:06:23.701Z,-94
2017-01-15T01:07:23.778Z,-94
2017-01-15T01:08:23.732Z,-94
2017-01-15T01:09:23.654Z,-93
2017-01-15T01:10:23.742Z,-93
2017-01-15T01:11:23.943Z,-93
2017-01-15T01:12:23.902Z,-93
2017-01-15T01:13:23.731Z,-94
2017-01-15T01:14:23.728Z,-94
2017-01-15T01:15:23.795Z,-94
2017-01-15T01:16:23.804Z,-94
2017-01-15T01:17:23.736Z,-94
2017-01-15T01:18:23.798Z,-93
2017-01-15T01:19:23.772Z,-94
2017-01-15T01:20:23.684Z,-93
2017-01-15T01:21:23.813Z,-93
2017-01-15T01:22:23.734Z,-94
2017-01-15T01:23:23.870Z,-94
2017-01-15T01:24:23.684Z,-94
2017-01-15T01:25:23.812Z,-94
2017-01-15T01:26:23.778Z,-94
2017-01-15T01:27:23.757Z,-94
2017-01-15T01:28:23.804Z,-94
2017-01-15T01:29:23.703Z,-94
2017-01-15T01:30:23.846Z,-94
2017-01-15T01:31:23.880Z,-94
2017-01-15T01:32:23.787Z,-94
2017-01-15T01:33:23.834Z,-94
2017-01-15T01:34:23.707Z,-94
2017-01-15T01:35:23.775Z,-94
2017-01-15T01:36:23.839Z,-94
2017-01-15T01:37:23.736Z,-94
2017-01-15T01:38:23.836Z,-94
2017-01-15T01:39:23.773Z,-94
2017-01-15T01:40:23.859Z,-95
2017-01-15T01:41:23.819Z,-94
2017-01-15T01:42:23.815Z,-94
2017-01-15T01:43:23.834Z,-94
2017-01-15T01:44:23.796Z,-94
2017-01-15T01:45:23.852Z,-94
2017-01-15T01:46:23.861Z,-95
2017-01-15T01:47:23.751Z,-95
2017-01-15T01:48:23.865Z,-94
2017-01-15T01:49:23.938Z,-95
2017-01-15T01:50:23.905Z,-94
2017-01-15T01:51:23.761Z,-94
2017-01-15T01:52:23.875Z,-95
2017-01-15T01:53:23.897Z,-94
2017-01-15T01:54:23.732Z,-94
2017-01-15T01:55:23.961Z,-95
2017-01-15T01:56:23.882Z,-94
2017-01-15T01:57:23.817Z,-94
2017-01-15T01:58:23.925Z,-94
2017-01-15T01:59:23.912Z,-94
2017-01-15T02:00:23.830Z,-95
2017-01-15T02:01:23.869Z,-95
2017-01-15T02:02:23.771Z,-95
2017-01-15T02:03:23.786Z,-94
2017-01-15T02:04:23.832Z,-94
2017-01-15T02:05:23.841Z,-95
2017-01-15T02:06:23.927Z,-94
2017-01-15T02:07:23.968Z,-95
2017-01-15T02:08:23.836Z,-94
2017-01-15T02:09:23.796Z,-95
2017-01-15T02:10:23.921Z,-95
2017-01-15T02:11:23.920Z,-95
2017-01-15T02:12:23.986Z,-94
2017-01-15T02:13:23.927Z,-94
2017-01-15T02:14:23.960Z,-94
2017-01-15T02:15:23.938Z,-94
2017-01-15T02:16:23.936Z,-95
2017-01-15T02:17:23.851Z,-94
2017-01-15T02:18:23.934Z,-95
2017-01-15T02:19:23.897Z,-94
2017-01-15T02:20:23.937Z,-95
2017-01-15T02:21:23.812Z,-95
2017-01-15T02:22:23.883Z,-95
2017-01-15T02:23:23.942Z,-95
2017-01-15T02:24:23.973Z,-94
2017-01-15T02:25:23.949Z,-94
2017-01-15T02:26:23.823Z,-94
2017-01-15T02:27:23.898Z,-95
2017-01-15T02:28:23.919Z,-95
2017-01-15T02:29:23.887Z,-95
2017-01-15T02:30:24.039Z,-95
2017-01-15T02:31:23.874Z,-94
2017-01-15T02:32:23.949Z,-94
2017-01-15T02:33:23.950Z,-94
2017-01-15T02:34:23.970Z,-95
2017-01-15T02:35:24.051Z,-95
2017-01-15T02:36:23.903Z,-94
2017-01-15T02:37:23.970Z,-95
2017-01-15T02:38:23.922Z,-94
2017-01-15T02:39:23.921Z,-95
2017-01-15T02:40:23.909Z,-94
2017-01-15T02:41:24.073Z,-94
2017-01-15T02:42:23.978Z,-95
2017-01-15T02:43:23.940Z,-95
2017-01-15T02:44:23.984Z,-95
2017-01-15T02:45:24.058Z,-95
2017-01-15T02:46:23.943Z,-94
2017-01-15T02:47:23.921Z,-94
2017-01-15T02:48:23.974Z,-95
2017-01-15T02:49:24.068Z,-94
2017-01-15T02:50:24.084Z,-95
2017-01-15T02:51:23.896Z,-95
2017-01-15T02:52:24.005Z,-94
2017-01-15T02:53:23.968Z,-95
2017-01-15T02:54:24.035Z,-95
2017-01-15T02:55:24.012Z,-94
2017-01-15T02:56:24.014Z,-95
2017-01-15T02:57:23.975Z,-95
2017-01-15T02:58:24.028Z,-94
2017-01-15T02:59:24.036Z,-95
2017-01-15T03:00:24.096Z,-95
2017-01-15T03:01:23.969Z,-95
2017-01-15T03:02:24.032Z,-95
2017-01-15T03:03:23.964Z,-94
2017-01-15T03:04:24.099Z,-95
2017-01-15T03:05:23.989Z,-94
2017-01-15T03:06:24.033Z,-95
2017-01-15T03:07:24.026Z,-94
2017-01-15T03:08:24.097Z,-94
2017-01-15T03:09:23.975Z,-94
2017-01-15T03:10:24.056Z,-95
2017-01-15T03:11:24.134Z,-94
2017-01-15T03:12:24.090Z,-95
2017-01-15T03:13:24.121Z,-95
2017-01-15T03:14:23.991Z,-95
2017-01-15T03:15:23.992Z,-94
2017-01-15T03:16:24.011Z,-94
2017-01-15T03:17:24.130Z,-95
2017-01-15T03:18:24.329Z,-95
2017-01-15T03:19:24.062Z,-94
2017-01-15T03:20:24.005Z,-94
2017-01-15T03:21:24.016Z,-94
2017-01-15T03:22:24.068Z,-94
2017-01-15T03:23:24.035Z,-94
2017-01-15T03:24:24.031Z,-95
2017-01-15T03:25:24.023Z,-94
2017-01-15T03:26:24.142Z,-95
2017-01-15T03:27:24.098Z,-94
2017-01-15T03:28:24.194Z,-95
2017-01-15T03:29:24.098Z,-95
2017-01-15T03:30:24.082Z,-95
2017-01-15T03:31:24.142Z,-94
2017-01-15T03:32:23.972Z,-95
2017-01-15T03:33:24.098Z,-94
2017-01-15T03:34:24.293Z,-94
2017-01-15T03:35:24.096Z,-95
2017-01-15T03:36:24.047Z,-95
2017-01-15T03:37:24.120Z,-95
2017-01-15T03:38:24.192Z,-95
2017-01-15T03:39:23.985Z,-95
2017-01-15T03:40:24.068Z,-95
2017-01-15T03:41:24.118Z,-94
2017-01-15T03:42:24.169Z,-95
2017-01-15T03:43:23.983Z,-95
2017-01-15T03:44:24.251Z,-94
2017-01-15T03:45:24.270Z,-95
2017-01-15T03:46:24.095Z,-94
2017-01-15T03:47:24.136Z,-95
2017-01-15T03:48:24.075Z,-95
2017-01-15T03:49:24.196Z,-95
2017-01-15T03:50:24.248Z,-95
2017-01-15T03:51:24.102Z,-95
2017-01-15T03:52:24.123Z,-96
2017-01-15T03:53:24.085Z,-95
2017-01-15T03:54:24.149Z,-95
2017-01-15T03:55:24.082Z,-94
2017-01-15T03:56:24.081Z,-95
2017-01-15T03:57:24.097Z,-95
2017-01-15T03:58:24.020Z,-95
2017-01-15T03:59:24.086Z,-95
2017-01-15T04:00:24.065Z,-95
2017-01-15T04:01:24.085Z,-95
2017-01-15T04:02:24.132Z,-95
2017-01-15T04:03:24.159Z,-95
2017-01-15T04:04:24.151Z,-95
2017-01-15T04:05:24.067Z,-94
2017-01-15T04:06:24.359Z,-96
2017-01-15T04:07:24.182Z,-96
2017-01-15T04:08:24.182Z,-95
2017-01-15T04:09:24.131Z,-95
2017-01-15T04:10:24.048Z,-95
2017-01-15T04:11:24.265Z,-95
2017-01-15T04:12:24.184Z,-96
2017-01-15T04:13:24.117Z,-96
2017-01-15T04:14:24.140Z,-96
2017-01-15T04:15:24.130Z,-96
2017-01-15T04:16:24.273Z,-95
2017-01-15T04:17:24.118Z,-96
2017-01-15T04:18:24.233Z,-96
2017-01-15T04:19:24.225Z,-96
2017-01-15T04:20:24.258Z,-96
2017-01-15T04:21:24.234Z,-96
2017-01-15T04:22:24.261Z,-96
2017-01-15T04:23:24.164Z,-96
2017-01-15T04:24:24.152Z,-96
2017-01-15T04:25:24.287Z,-95
2017-01-15T04:26:24.211Z,-96
2017-01-15T04:27:24.197Z,-96
2017-01-15T04:28:24.226Z,-95
2017-01-15T04:29:24.230Z,-96
2017-01-15T04:30:24.154Z,-96
2017-01-15T04:31:24.213Z,-96
2017-01-15T04:32:24.211Z,-95
2017-01-15T04:33:24.197Z,-96
2017-01-15T04:34:24.226Z,-96
2017-01-15T04:35:24.158Z,-96
2017-01-15T04:36:24.239Z,-96
2017-01-15T04:37:24.256Z,-96
2017-01-15T04:38:24.348Z,-95
2017-01-15T04:39:24.277Z,-96
2017-01-15T04:40:24.251Z,-96
2017-01-15T04:41:24.238Z,-96
2017-01-15T04:42:24.321Z,-96
2017-01-15T04:43:24.146Z,-96
2017-01-15T04:44:24.271Z,-96
2017-01-15T04:45:24.186Z,-95
2017-01-15T04:46:24.250Z,-96
2017-01-15T04:47:24.364Z,-96
2017-01-15T04:48:24.420Z,-95
2017-01-15T04:49:24.275Z,-96
2017-01-15T04:50:24.155Z,-96
2017-01-15T04:51:24.158Z,-96
2017-01-15T04:52:24.160Z,-96
2017-01-15T04:53:24.207Z,-96
2017-01-15T04:54:24.362Z,-95
2017-01-15T04:55:24.165Z,-96
2017-01-15T04:56:24.278Z,-96
2017-01-15T04:57:24.284Z,-96
2017-01-15T04:58:24.240Z,-95
2017-01-15T04:59:24.245Z,-96
2017-01-15T05:00:24.236Z,-96
2017-01-15T05:01:24.271Z,-96
2017-01-15T05:02:24.304Z,-96
2017-01-15T05:03:24.329Z,-96
2017-01-15T05:04:24.312Z,-96
2017-01-15T05:05:24.245Z,-96
2017-01-15T05:06:24.310Z,-96
2017-01-15T05:07:24.301Z,-96
2017-01-15T05:08:24.232Z,-95
2017-01-15T05:09:24.311Z,-95
2017-01-15T05:10:24.571Z,-96
2017-01-15T05:11:24.196Z,-96
2017-01-15T05:12:24.297Z,-96
2017-01-15T05:13:24.185Z,-96
2017-01-15T05:14:24.205Z,-96
2017-01-15T05:15:24.350Z,-95
2017-01-15T05:16:24.314Z,-96
2017-01-15T05:17:24.319Z,-96
2017-01-15T05:18:24.371Z,-95
2017-01-15T05:19:24.266Z,-96
2017-01-15T05:20:24.579Z,-95
2017-01-15T05:21:24.317Z,-96
2017-01-15T05:22:24.283Z,-96
2017-01-15T05:23:24.273Z,-96
2017-01-15T05:24:24.276Z,-96
2017-01-15T05:25:24.349Z,-96
2017-01-15T05:26:24.471Z,-95
2017-01-15T05:27:24.336Z,-96
2017-01-15T05:28:24.286Z,-95
2017-01-15T05:29:24.286Z,-96
2017-01-15T05:30:24.387Z,-96
2017-01-15T05:31:24.375Z,-96
2017-01-15T05:32:24.302Z,-96
2017-01-15T05:33:24.304Z,-95
2017-01-15T05:34:24.355Z,-96
2017-01-15T05:35:24.330Z,-96
2017-01-15T05:36:24.404Z,-96
2017-01-15T05:37:24.392Z,-95
2017-01-15T05:38:24.298Z,-96
2017-01-15T05:39:24.358Z,-96
2017-01-15T05:40:24.383Z,-96
2017-01-15T05:41:24.393Z,-96
2017-01-15T05:42:24.486Z,-96
2017-01-15T05:43:24.405Z,-96
2017-01-15T05:44:24.388Z,-96
2017-01-15T05:45:24.441Z,-96
2017-01-15T05:46:24.329Z,-96
2017-01-15T05:47:24.392Z,-96
2017-01-15T05:48:24.398Z,-96
2017-01-15T05:49:24.414Z,-96
2017-01-15T05:50:24.401Z,-96
2017-01-15T05:51:24.471Z,-96
2017-01-15T05:52:24.428Z,-95
2017-01-15T05:53:24.250Z,-96
2017-01-15T05:54:24.327Z,-95
2017-01-15T05:55:24.355Z,-96
2017-01-15T05:56:24.382Z,-96
2017-01-15T05:57:24.428Z,-96
2017-01-15T05:58:24.631Z,-96
2017-01-15T05:59:24.405Z,-96
2017-01-15T06:00:24.392Z,-96
2017-01-15T06:01:24.393Z,-95
2017-01-15T06:02:24.301Z,-96
2017-01-15T06:03:24.392Z,-96
2017-01-15T06:04:24.492Z,-96
2017-01-15T06:05:24.384Z,-96
2017-01-15T06:06:24.442Z,-95
2017-01-15T06:07:24.495Z,-96
2017-01-15T06:08:24.462Z,-96
2017-01-15T06:09:24.376Z,-96
2017-01-15T06:10:24.317Z,-96
2017-01-15T06:11:24.398Z,-96
2017-01-15T06:12:24.447Z,-96
2017-01-15T06:13:24.443Z,-96
2017-01-15T06:14:24.634Z,-96
2017-01-15T06:15:24.325Z,-96
2017-01-15T06:16:24.388Z,-96
2017-01-15T06:17:24.413Z,-95
2017-01-15T06:18:24.388Z,-96
2017-01-15T06:19:24.404Z,-96
2017-01-15T06:20:24.530Z,-96
2017-01-15T06:21:24.429Z,-96
2017-01-15T06:22:24.409Z,-96
2017-01-15T06:23:24.541Z,-96
2017-01-15T06:24:24.730Z,-96
2017-01-15T06:25:24.534Z,-95
2017-01-15T06:26:24.489Z,-95
2017-01-15T06:27:24.416Z,-95
2017-01-15T06:28:24.417Z,-96
2017-01-15T06:29:24.566Z,-95
2017-01-15T06:30:24.599Z,-96
2017-01-15T06:31:24.432Z,-96
2017-01-15T06:32:24.482Z,-95
2017-01-15T06:33:24.493Z,-95
2017-01-15T06:34:24.491Z,-96
2017-01-15T06:35:24.474Z,-96
2017-01-15T06:36:24.427Z,-96
2017-01-15T06:37:24.635Z,-95
2017-01-15T06:38:24.496Z,-96
2017-01-15T06:39:24.445Z,-96
2017-01-15T06:40:24.579Z,-96
2017-01-15T06:41:24.501Z,-96
2017-01-15T06:42:24.512Z,-96
2017-01-15T06:43:24.434Z,-96
2017-01-15T06:44:24.428Z,-96
2017-01-15T06:45:24.514Z,-95
2017-01-15T06:46:24.633Z,-96
2017-01-15T06:47:24.617Z,-96
2017-01-15T06:48:24.520Z,-95
2017-01-15T06:49:24.485Z,-96
2017-01-15T06:50:24.533Z,-96
2017-01-15T06:51:24.621Z,-96
2017-01-15T06:52:24.539Z,-96
2017-01-15T06:53:24.492Z,-96
2017-01-15T06:54:24.410Z,-96
2017-01-15T06:55:24.468Z,-96
2017-01-15T06:56:24.500Z,-95
2017-01-15T06:57:24.539Z,-96
2017-01-15T06:58:26.082Z,-96
2017-01-15T06:59:24.492Z,-96
2017-01-15T07:00:24.560Z,-96
2017-01-15T07:01:24.487Z,-95
2017-01-15T07:02:24.733Z,-96
2017-01-15T07:03:24.486Z,-96
2017-01-15T07:04:24.445Z,-96
2017-01-15T07:05:24.552Z,-96
2017-01-15T07:06:24.561Z,-96
2017-01-15T07:07:24.528Z,-96
2017-01-15T07:08:24.622Z,-96
2017-01-15T07:09:24.559Z,-96
2017-01-15T07:10:24.523Z,-93
2017-01-15T07:11:24.437Z,-91
2017-01-15T07:12:24.469Z,-90
2017-01-15T07:13:24.532Z,-91
2017-01-15T07:14:24.613Z,-91
2017-01-15T07:15:24.489Z,-90
2017-01-15T07:16:24.540Z,-91
2017-01-15T07:17:24.596Z,-91
2017-01-15T07:18:24.749Z,-91
2017-01-15T07:19:24.439Z,-91
2017-01-15T07:20:24.671Z,-91
2017-01-15T07:21:24.500Z,-90
2017-01-15T07:22:24.663Z,-90
2017-01-15T07:23:24.609Z,-91
2017-01-15T07:24:24.458Z,-91
2017-01-15T07:25:24.509Z,-91
2017-01-15T07:26:24.508Z,-91
2017-01-15T07:27:24.632Z,-91
2017-01-15T07:28:24.752Z,-91
2017-01-15T07:29:24.509Z,-91
2017-01-15T07:30:24.568Z,-92
2017-01-15T07:31:24.574Z,-91
2017-01-15T07:32:24.518Z,-91
2017-01-15T07:33:24.529Z,-91
2017-01-15T07:34:25.515Z,-91
2017-01-15T07:35:24.593Z,-91
2017-01-15T07:36:24.624Z,-91
2017-01-15T07:37:24.583Z,-91
2017-01-15T07:38:24.535Z,-91
2017-01-15T07:39:24.555Z,-91
2017-01-15T07:40:24.526Z,-91
2017-01-15T07:41:24.496Z,-91
2017-01-15T07:42:24.563Z,-91
2017-01-15T07:43:24.480Z,-91
2017-01-15T07:44:24.612Z,-91
2017-01-15T07:45:24.579Z,-91
2017-01-15T07:46:24.496Z,-91
2017-01-15T07:47:24.555Z,-91
2017-01-15T07:48:24.613Z,-90
2017-01-15T07:49:24.619Z,-91
2017-01-15T07:50:24.867Z,-91
2017-01-15T07:51:24.505Z,-91
2017-01-15T07:52:24.574Z,-91
2017-01-15T07:53:24.624Z,-91
2017-01-15T07:54:24.657Z,-91
2017-01-15T07:55:24.598Z,-91
2017-01-15T07:56:24.620Z,-91
2017-01-15T07:57:24.676Z,-91
2017-01-15T07:58:24.740Z,-91
2017-01-15T07:59:24.523Z,-91
2017-01-15T08:00:24.672Z,-91
2017-01-15T08:01:24.594Z,-91
2017-01-15T08:02:24.521Z,-91
2017-01-15T08:03:24.591Z,-91
2017-01-15T08:04:24.645Z,-91
2017-01-15T08:05:24.670Z,-91
2017-01-15T08:06:24.885Z,-91
2017-01-15T08:07:24.711Z,-90
2017-01-15T08:08:24.614Z,-90
2017-01-15T08:09:24.681Z,-92
2017-01-15T08:10:24.697Z,-90
2017-01-15T08:11:24.642Z,-90
2017-01-15T08:12:24.598Z,-91
2017-01-15T08:13:24.607Z,-91
2017-01-15T08:14:24.611Z,-91
2017-01-15T08:15:24.733Z,-91
2017-01-15T08:16:24.633Z,-91
2017-01-15T08:17:24.692Z,-91
2017-01-15T08:18:24.619Z,-91
2017-01-15T08:19:24.719Z,-91
2017-01-15T08:20:24.739Z,-91
2017-01-15T08:21:24.742Z,-91
2017-01-15T08:22:24.666Z,-91
2017-01-15T08:23:24.928Z,-91
2017-01-15T08:24:24.707Z,-91
2017-01-15T08:25:24.622Z,-91
2017-01-15T08:26:24.708Z,-91
2017-01-15T08:27:24.657Z,-91
2017-01-15T08:28:24.600Z,-90
2017-01-15T08:29:24.777Z,-91
2017-01-15T08:30:24.650Z,-91
2017-01-15T08:31:24.715Z,-91
2017-01-15T08:32:24.827Z,-91
2017-01-15T08:33:24.663Z,-91
2017-01-15T08:34:24.669Z,-91
2017-01-15T08:35:24.717Z,-91
2017-01-15T08:36:24.653Z,-91
2017-01-15T08:37:24.595Z,-91
2017-01-15T08:38:24.744Z,-91
2017-01-15T08:39:24.661Z,-91
2017-01-15T08:40:24.734Z,-91
2017-01-15T08:41:24.677Z,-91
2017-01-15T08:42:24.755Z,-91
2017-01-15T08:43:24.763Z,-91
2017-01-15T08:44:24.648Z,-91
2017-01-15T08:45:24.739Z,-91
2017-01-15T08:46:24.686Z,-91
2017-01-15T08:47:24.720Z,-91
2017-01-15T08:48:24.770Z,-91
2017-01-15T08:49:24.746Z,-91
2017-01-15T08:50:24.794Z,-91
2017-01-15T08:51:24.700Z,-91
2017-01-15T08:52:24.640Z,-91
2017-01-15T08:53:24.767Z,-91
2017-01-15T08:54:24.656Z,-91
2017-01-15T08:55:24.767Z,-91
2017-01-15T08:56:24.757Z,-91
2017-01-15T08:57:24.716Z,-91
2017-01-15T08:58:24.723Z,-92
2017-01-15T08:59:24.784Z,-92
2017-01-15T09:00:24.762Z,-91
2017-01-15T09:01:24.727Z,-92
2017-01-15T09:02:24.716Z,-91
2017-01-15T09:03:24.851Z,-91
2017-01-15T09:04:24.867Z,-92
2017-01-15T09:05:24.777Z,-92
2017-01-15T09:06:24.738Z,-92
2017-01-15T09:07:24.808Z,-91
2017-01-15T09:08:24.810Z,-92
2017-01-15T09:09:24.858Z,-91
2017-01-15T09:10:25.013Z,-92
2017-01-15T09:11:24.752Z,-92
2017-01-15T09:12:24.814Z,-92
2017-01-15T09:13:24.861Z,-91
2017-01-15T09:14:24.996Z,-92
2017-01-15T09:15:24.827Z,-92
2017-01-15T09:16:24.711Z,-91
2017-01-15T09:17:24.824Z,-92
2017-01-15T09:18:24.774Z,-92
2017-01-15T09:19:24.748Z,-92
2017-01-15T09:20:24.865Z,-92
2017-01-15T09:21:24.844Z,-92
2017-01-15T09:22:24.784Z,-92
2017-01-15T09:23:24.799Z,-92
2017-01-15T09:24:24.697Z,-92
2017-01-15T09:25:24.789Z,-92
2017-01-15T09:26:24.864Z,-92
2017-01-15T09:27:24.959Z,-91
2017-01-15T09:28:24.860Z,-91
2017-01-15T09:29:24.754Z,-91
2017-01-15T09:30:24.787Z,-93
2017-01-15T09:31:24.841Z,-92
2017-01-15T09:32:24.937Z,-93
2017-01-15T09:33:24.935Z,-92
2017-01-15T09:34:24.802Z,-93
2017-01-15T09:35:24.765Z,-93
2017-01-15T09:36:24.909Z,-93
2017-01-15T09:37:24.808Z,-94
2017-01-15T09:38:24.902Z,-93
2017-01-15T09:39:24.760Z,-94
2017-01-15T09:40:24.778Z,-93
2017-01-15T09:41:24.924Z,-93
2017-01-15T09:42:24.868Z,-92
2017-01-15T09:43:24.926Z,-93
2017-01-15T09:44:24.961Z,-94
2017-01-15T09:45:24.839Z,-94
2017-01-15T09:46:24.840Z,-94
2017-01-15T09:47:24.811Z,-94
2017-01-15T09:48:24.871Z,-94
2017-01-15T09:49:24.870Z,-95
2017-01-15T09:50:24.912Z,-95
2017-01-15T09:51:24.967Z,-95
2017-01-15T09:52:25.011Z,-95
2017-01-15T09:53:24.892Z,-94
2017-01-15T09:54:24.876Z,-95
2017-01-15T09:55:24.934Z,-95
2017-01-15T09:56:25.097Z,-96
2017-01-15T09:57:24.848Z,-96
2017-01-15T09:58:25.050Z,-96
2017-01-15T09:59:24.956Z,-96
2017-01-15T10:00:25.069Z,-96
2017-01-15T10:01:25.166Z,-96
2017-01-15T10:02:25.007Z,-96
2017-01-15T10:03:25.160Z,-96
2017-01-15T10:04:25.251Z,-96
2017-01-15T10:05:25.383Z,-96
2017-01-15T10:37:15.304Z,-96
2017-01-15T10:37:22.478Z,-96
2017-01-15T10:38:22.340Z,-96
2017-01-15T10:39:22.232Z,-96
2017-01-15T10:40:22.220Z,-96
2017-01-15T10:41:22.276Z,-96
2017-01-15T10:42:22.322Z,-96
2017-01-15T10:43:22.222Z,-96
2017-01-15T10:44:22.332Z,-96
2017-01-15T10:45:22.352Z,-96
2017-01-15T10:46:22.349Z,-96
2017-01-15T10:47:22.243Z,-96
2017-01-15T10:48:22.280Z,-96
2017-01-15T10:49:22.172Z,-95
2017-01-15T10:50:22.160Z,-96
2017-01-15T10:51:22.225Z,-95
2017-01-15T10:52:22.251Z,-95
2017-01-15T10:53:22.228Z,-95
2017-01-15T10:54:22.305Z,-94
2017-01-15T10:55:22.284Z,-95
2017-01-15T10:56:22.318Z,-94
2017-01-15T10:57:22.240Z,-95
2017-01-15T10:58:22.319Z,-95
2017-01-15T10:59:22.288Z,-94
2017-01-15T11:00:22.162Z,-94
2017-01-15T11:01:22.332Z,-94
2017-01-15T11:02:22.188Z,-94
2017-01-15T11:03:22.363Z,-94
2017-01-15T11:04:22.260Z,-93
2017-01-15T11:05:22.323Z,-93
2017-01-15T11:06:22.377Z,-93
2017-01-15T11:07:22.502Z,-93
2017-01-15T11:08:22.252Z,-93
2017-01-15T11:09:22.399Z,-93
2017-01-15T11:10:22.189Z,-93
2017-01-15T11:11:22.251Z,-93
2017-01-15T11:12:22.229Z,-92
2017-01-15T11:13:22.265Z,-93
2017-01-15T11:14:22.313Z,-93
2017-01-15T11:15:22.216Z,-93
2017-01-15T11:16:22.314Z,-93
2017-01-15T11:17:22.378Z,-92
2017-01-15T11:18:22.284Z,-92
2017-01-15T11:19:22.281Z,-92
2017-01-15T11:20:22.267Z,-92
2017-01-15T11:21:22.399Z,-92
2017-01-15T11:22:22.393Z,-92
2017-01-15T11:23:22.256Z,-92
2017-01-15T11:24:22.257Z,-92
2017-01-15T11:25:22.501Z,-92
2017-01-15T11:26:22.313Z,-92
2017-01-15T11:27:22.207Z,-92
2017-01-15T11:28:22.337Z,-92
2017-01-15T11:29:22.421Z,-92
2017-01-15T11:30:22.458Z,-92
2017-01-15T11:31:22.343Z,-93
2017-01-15T11:32:22.515Z,-92
2017-01-15T11:33:22.508Z,-92
2017-01-15T11:34:22.920Z,-92
2017-01-15T11:35:22.422Z,-92
2017-01-15T11:36:22.411Z,-91
2017-01-15T11:37:22.382Z,-91
2017-01-15T11:38:22.430Z,-92
2017-01-15T11:39:22.280Z,-92
2017-01-15T11:40:22.396Z,-92
2017-01-15T11:41:22.441Z,-92
2017-01-15T11:42:22.279Z,-91
2017-01-15T11:43:22.336Z,-92
2017-01-15T11:44:22.383Z,-92
2017-01-15T11:45:22.464Z,-91
2017-01-15T11:46:22.333Z,-92
2017-01-15T11:47:22.439Z,-91
2017-01-15T11:48:22.288Z,-91
2017-01-15T11:49:22.291Z,-92
2017-01-15T11:50:22.280Z,-90
2017-01-15T11:51:22.328Z,-89
2017-01-15T11:52:22.369Z,-91
2017-01-15T11:53:22.427Z,-91
2017-01-15T11:54:22.289Z,-91
2017-01-15T11:55:22.301Z,-91
2017-01-15T11:56:22.321Z,-91
2017-01-15T11:57:22.412Z,-90
2017-01-15T11:58:22.316Z,-91
2017-01-15T11:59:22.363Z,-91
2017-01-15T12:00:22.484Z,-90
2017-01-15T12:01:22.362Z,-91
2017-01-15T12:02:22.474Z,-91
2017-01-15T12:03:22.365Z,-91
2017-01-15T12:04:22.310Z,-91
2017-01-15T12:05:22.276Z,-91
2017-01-15T12:06:22.284Z,-91
2017-01-15T12:07:22.357Z,-91
2017-01-15T12:08:22.341Z,-91
2017-01-15T12:09:22.370Z,-91
2017-01-15T12:10:22.338Z,-91
2017-01-15T12:11:22.329Z,-91
2017-01-15T12:12:22.318Z,-91
2017-01-15T12:13:22.257Z,-91
2017-01-15T12:14:22.248Z,-90
2017-01-15T12:15:22.406Z,-91
2017-01-15T12:16:22.401Z,-90
2017-01-15T12:17:22.263Z,-91
2017-01-15T12:18:22.609Z,-90
2017-01-15T12:19:22.393Z,-91
2017-01-15T12:20:22.388Z,-90
2017-01-15T12:21:22.349Z,-91
2017-01-15T12:22:22.323Z,-91
2017-01-15T12:23:22.276Z,-90
2017-01-15T12:24:22.426Z,-90
2017-01-15T12:25:22.347Z,-91
2017-01-15T12:26:22.328Z,-90
2017-01-15T12:27:22.376Z,-90
2017-01-15T12:28:22.401Z,-91
2017-01-15T12:29:22.482Z,-90
2017-01-15T12:30:22.280Z,-91
2017-01-15T12:31:22.345Z,-90
2017-01-15T12:32:22.307Z,-90
2017-01-15T12:33:22.427Z,-90
2017-01-15T12:34:22.402Z,-90
2017-01-15T12:35:22.387Z,-90
2017-01-15T12:36:22.316Z,-90
2017-01-15T12:37:22.454Z,-90
2017-01-15T12:38:22.320Z,-90
2017-01-15T12:39:22.433Z,-90
2017-01-15T12:40:22.331Z,-90
2017-01-15T12:41:22.469Z,-90
2017-01-15T12:42:22.416Z,-90
2017-01-15T12:43:22.342Z,-90
2017-01-15T12:44:22.404Z,-90
2017-01-15T12:45:22.664Z,-90
2017-01-15T12:46:22.365Z,-90
2017-01-15T12:47:22.371Z,-90
2017-01-15T12:48:22.473Z,-90
2017-01-15T12:49:22.901Z,-90
2017-01-15T12:50:22.400Z,-90
2017-01-15T12:51:22.348Z,-90
2017-01-15T12:52:22.353Z,-90
2017-01-15T12:53:22.348Z,-90
2017-01-15T12:54:22.448Z,-90
2017-01-15T12:55:22.462Z,-91
2017-01-15T12:56:22.380Z,-91
2017-01-15T12:57:22.364Z,-91
2017-01-15T12:58:22.418Z,-91
2017-01-15T12:59:22.421Z,-90
2017-01-15T13:00:22.529Z,-90
2017-01-15T13:01:22.573Z,-91
2017-01-15T13:02:22.379Z,-90
2017-01-15T13:03:22.379Z,-91
2017-01-15T13:04:22.526Z,-90
2017-01-15T13:05:22.388Z,-90
2017-01-15T13:06:22.378Z,-90
2017-01-15T13:07:22.337Z,-91
2017-01-15T13:08:22.428Z,-90
2017-01-15T13:09:22.505Z,-90
2017-01-15T13:10:22.369Z,-90
2017-01-15T13:11:22.424Z,-90
2017-01-15T13:12:22.477Z,-90
2017-01-15T13:13:22.428Z,-90
2017-01-15T13:14:22.334Z,-90
2017-01-15T13:15:22.343Z,-90
2017-01-15T13:16:22.457Z,-90
2017-01-15T13:17:22.515Z,-90
2017-01-15T13:18:22.403Z,-90
2017-01-15T13:19:22.477Z,-90
2017-01-15T13:20:22.513Z,-90
2017-01-15T13:21:22.476Z,-90
2017-01-15T13:22:22.539Z,-90
2017-01-15T13:23:22.405Z,-90
2017-01-15T13:24:22.595Z,-90
2017-01-15T13:25:22.410Z,-90
2017-01-15T13:26:22.468Z,-90
2017-01-15T13:27:22.409Z,-90
2017-01-15T13:28:22.483Z,-90
2017-01-15T13:29:22.391Z,-90
2017-01-15T13:30:22.491Z,-90
2017-01-15T13:31:22.472Z,-90
2017-01-15T13:32:22.417Z,-90
2017-01-15T13:33:22.459Z,-90
2017-01-15T13:34:22.349Z,-90
2017-01-15T13:35:22.579Z,-90
2017-01-15T13:36:22.493Z,-90
2017-01-15T13:37:22.525Z,-90
2017-01-15T13:38:22.424Z,-90
2017-01-15T13:39:22.555Z,-90
2017-01-15T13:40:22.351Z,-90
2017-01-15T13:41:22.472Z,-90
2017-01-15T13:42:22.418Z,-90
2017-01-15T13:43:22.388Z,-90
2017-01-15T13:44:22.409Z,-90
2017-01-15T13:45:22.513Z,-90
2017-01-15T13:46:22.501Z,-90
2017-01-15T13:47:22.492Z,-89
2017-01-15T13:48:22.360Z,-90
2017-01-15T13:49:22.577Z,-90
2017-01-15T13:50:22.432Z,-90
2017-01-15T13:51:22.429Z,-90
2017-01-15T13:52:22.517Z,-89
2017-01-15T13:53:22.434Z,-90
2017-01-15T13:54:22.575Z,-90
2017-01-15T13:55:22.471Z,-90
2017-01-15T13:56:22.372Z,-90
2017-01-15T13:57:22.361Z,-90
2017-01-15T13:58:22.437Z,-90
2017-01-15T13:59:22.442Z,-90
2017-01-15T14:00:22.546Z,-90
2017-01-15T14:01:22.445Z,-90
2017-01-15T14:02:22.448Z,-90
2017-01-15T14:03:22.536Z,-90
2017-01-15T14:04:22.522Z,-90
2017-01-15T14:05:22.704Z,-90
2017-01-15T14:06:22.663Z,-90
2017-01-15T14:07:22.522Z,-90
2017-01-15T14:08:22.519Z,-90
2017-01-15T14:09:22.548Z,-90
2017-01-15T14:10:22.537Z,-90
2017-01-15T14:11:22.589Z,-90
2017-01-15T14:12:22.590Z,-90
2017-01-15T14:13:22.384Z,-90
2017-01-15T14:14:22.468Z,-90
2017-01-15T14:15:22.486Z,-90
2017-01-15T14:16:22.454Z,-90